createdAt,value
2023-02-24T00:00:55.049Z,7.25
2023-02-24T00:01:55.050Z,7.14
2023-02-24T00:02:55.033Z,7.32
2023-02-24T00:03:55.024Z,7.31
2023-02-24T00:04:55.040Z,7.32
2023-02-24T00:05:55.018Z,7.31
2023-02-24T00:06:55.000Z,7.31
2023-02-24T00:07:54.992Z,7.25
2023-02-24T00:08:54.978Z,7.35
2023-02-24T00:09:55.009Z,7.35
2023-02-24T00:10:54.969Z,7.33
2023-02-24T00:11:54.961Z,7.32
2023-02-24T00:12:54.953Z,7.35
2023-02-24T00:13:54.943Z,7.29
2023-02-24T00:14:54.970Z,7.35
2023-02-24T00:15:54.938Z,7.39
2023-02-24T00:16:55.001Z,7.39
2023-02-24T00:17:54.924Z,7.39
2023-02-24T00:18:54.897Z,7.31
2023-02-24T00:19:54.921Z,7.31
2023-02-24T00:20:54.881Z,7.21
2023-02-24T00:21:54.913Z,7.29
2023-02-24T00:22:54.875Z,7.24
2023-02-24T00:23:54.856Z,7.32
2023-02-24T00:24:54.884Z,7.20
2023-02-24T00:25:54.847Z,7.31
2023-02-24T00:26:54.837Z,7.14
2023-02-24T00:27:54.832Z,7.20
2023-02-24T00:28:54.823Z,7.18
2023-02-24T00:29:54.849Z,7.18
2023-02-24T00:30:54.923Z,7.14
2023-02-24T00:31:54.931Z,7.21
2023-02-24T00:32:54.826Z,7.20
2023-02-24T00:33:54.786Z,7.21
2023-02-24T00:34:55.827Z,7.23
2023-02-24T00:35:54.789Z,7.23
2023-02-24T00:36:54.775Z,7.14
2023-02-24T00:37:54.819Z,7.17
2023-02-24T00:38:54.757Z,7.28
2023-02-24T00:39:54.779Z,7.21
2023-02-24T00:40:54.746Z,7.20
2023-02-24T00:41:54.741Z,7.23
2023-02-24T00:42:54.738Z,7.18
2023-02-24T00:43:54.727Z,7.24
2023-02-24T00:44:54.788Z,7.17
2023-02-24T00:45:54.750Z,7.18
2023-02-24T00:46:54.707Z,7.14
2023-02-24T00:47:54.697Z,7.25
2023-02-24T00:48:54.691Z,7.23
2023-02-24T00:49:54.706Z,7.18
2023-02-24T00:50:54.679Z,7.15
2023-02-24T00:51:54.663Z,7.25
2023-02-24T00:52:54.655Z,7.24
2023-02-24T00:53:54.654Z,7.29
2023-02-24T00:54:54.662Z,7.21
2023-02-24T00:55:54.638Z,7.28
2023-02-24T00:56:54.634Z,7.28
2023-02-24T00:57:54.621Z,7.21
2023-02-24T00:58:54.618Z,7.25
2023-02-24T00:59:54.667Z,7.23
2023-02-24T01:00:54.602Z,7.23
2023-02-24T01:01:54.747Z,7.23
2023-02-24T01:02:54.585Z,7.17
2023-02-24T01:03:54.634Z,7.15
2023-02-24T01:04:54.602Z,7.21
2023-02-24T01:05:54.580Z,7.32
2023-02-24T01:06:54.553Z,7.20
2023-02-24T01:07:54.546Z,7.23
2023-02-24T01:08:54.547Z,7.23
2023-02-24T01:09:54.560Z,7.28
2023-02-24T01:10:54.525Z,7.24
2023-02-24T01:11:54.552Z,7.24
2023-02-24T01:12:54.508Z,7.24
2023-02-24T01:13:54.502Z,7.23
2023-02-24T01:14:54.529Z,7.15
2023-02-24T01:15:54.493Z,7.24
2023-02-24T01:16:54.482Z,7.18
2023-02-24T01:17:54.479Z,7.14
2023-02-24T01:18:54.472Z,7.17
2023-02-24T01:19:54.459Z,7.21
2023-02-24T01:20:54.481Z,7.18
2023-02-24T01:21:54.444Z,7.17
2023-02-24T01:22:54.463Z,7.13
2023-02-24T01:23:54.436Z,7.20
2023-02-24T01:24:54.427Z,7.17
2023-02-24T01:25:54.440Z,7.17
2023-02-24T01:26:54.409Z,7.15
2023-02-24T01:27:54.410Z,7.11
2023-02-24T01:28:54.397Z,7.10
2023-02-24T01:29:54.405Z,7.11
2023-02-24T01:30:54.511Z,7.07
2023-02-24T01:31:54.489Z,7.15
2023-02-24T01:32:54.524Z,7.13
2023-02-24T01:33:54.352Z,7.06
2023-02-24T01:34:54.346Z,7.10
2023-02-24T01:35:54.364Z,7.02
2023-02-24T01:36:54.353Z,7.05
2023-02-24T01:37:54.337Z,7.10
2023-02-24T01:38:54.319Z,7.03
2023-02-24T01:39:54.308Z,7.03
2023-02-24T01:40:54.333Z,6.97
2023-02-24T01:41:54.305Z,7.06
2023-02-24T01:42:54.296Z,7.06
2023-02-24T01:43:54.284Z,7.00
2023-02-24T01:44:54.284Z,7.06
2023-02-24T01:45:54.298Z,7.14
2023-02-24T01:46:54.307Z,7.06
2023-02-24T01:47:54.273Z,7.06
2023-02-24T01:48:54.253Z,7.05
2023-02-24T01:49:54.237Z,7.05
2023-02-24T01:50:54.253Z,7.00
2023-02-24T01:51:54.226Z,7.06
2023-02-24T01:52:54.219Z,7.03
2023-02-24T01:53:54.214Z,7.02
2023-02-24T01:54:54.204Z,6.96
2023-02-24T01:55:54.225Z,6.97
2023-02-24T01:56:54.188Z,7.00
2023-02-24T01:57:54.215Z,6.99
2023-02-24T01:58:54.176Z,7.00
2023-02-24T01:59:54.173Z,6.99
2023-02-24T02:00:54.191Z,6.97
2023-02-24T02:01:54.268Z,7.03
2023-02-24T02:02:54.207Z,6.93
2023-02-24T02:03:54.142Z,6.95
2023-02-24T02:04:54.144Z,6.96
2023-02-24T02:05:54.163Z,7.05
2023-02-24T02:06:54.119Z,7.11
2023-02-24T02:07:54.108Z,7.06
2023-02-24T02:08:54.105Z,6.89
2023-02-24T02:09:54.096Z,6.95
2023-02-24T02:10:54.120Z,6.92
2023-02-24T02:11:54.082Z,6.82
2023-02-24T02:12:54.074Z,6.87
2023-02-24T02:13:54.133Z,6.95
2023-02-24T02:14:54.057Z,6.85
2023-02-24T02:15:54.110Z,6.85
2023-02-24T02:16:54.041Z,6.84
2023-02-24T02:17:54.032Z,6.77
2023-02-24T02:18:54.027Z,6.84
2023-02-24T02:19:54.018Z,6.75
2023-02-24T02:20:54.039Z,6.75
2023-02-24T02:21:54.000Z,6.81
2023-02-24T02:22:53.992Z,6.75
2023-02-24T02:23:53.993Z,6.82
2023-02-24T02:24:54.011Z,6.78
2023-02-24T02:25:54.005Z,6.81
2023-02-24T02:26:53.978Z,6.75
2023-02-24T02:27:53.969Z,6.72
2023-02-24T02:28:54.043Z,6.72
2023-02-24T02:29:53.945Z,6.81
2023-02-24T02:30:53.988Z,6.81
2023-02-24T02:31:54.028Z,6.79
2023-02-24T02:32:53.964Z,6.78
2023-02-24T02:33:53.914Z,6.75
2023-02-24T02:34:53.910Z,6.81
2023-02-24T02:35:53.929Z,6.74
2023-02-24T02:36:53.895Z,6.82
2023-02-24T02:37:53.896Z,6.82
2023-02-24T02:38:53.882Z,6.81
2023-02-24T02:39:53.874Z,6.70
2023-02-24T02:40:53.889Z,6.82
2023-02-24T02:41:53.880Z,6.78
2023-02-24T02:42:53.852Z,6.88
2023-02-24T02:43:53.848Z,6.79
2023-02-24T02:44:53.834Z,6.78
2023-02-24T02:45:53.860Z,6.75
2023-02-24T02:46:53.852Z,6.85
2023-02-24T02:47:53.858Z,6.84
2023-02-24T02:48:53.847Z,6.85
2023-02-24T02:49:53.797Z,6.84
2023-02-24T02:50:53.797Z,6.75
2023-02-24T02:51:53.840Z,6.72
2023-02-24T02:52:53.769Z,6.75
2023-02-24T02:53:53.764Z,6.78
2023-02-24T02:54:53.752Z,6.82
2023-02-24T02:55:53.752Z,6.78
2023-02-24T02:56:53.766Z,6.78
2023-02-24T02:57:53.726Z,6.75
2023-02-24T02:58:53.733Z,6.70
2023-02-24T02:59:53.726Z,6.75
2023-02-24T03:00:53.732Z,6.67
2023-02-24T03:01:53.724Z,6.75
2023-02-24T03:02:53.703Z,6.70
2023-02-24T03:03:53.698Z,6.78
2023-02-24T03:04:53.765Z,6.69
2023-02-24T03:05:53.709Z,6.85
2023-02-24T03:06:53.697Z,6.74
2023-02-24T03:07:53.650Z,6.74
2023-02-24T03:08:53.656Z,6.75
2023-02-24T03:09:53.648Z,6.78
2023-02-24T03:10:53.642Z,6.78
2023-02-24T03:11:53.651Z,6.82
2023-02-24T03:12:53.616Z,6.79
2023-02-24T03:13:53.608Z,6.63
2023-02-24T03:14:53.608Z,6.72
2023-02-24T03:15:53.592Z,6.66
2023-02-24T03:16:53.676Z,6.63
2023-02-24T03:17:53.599Z,6.60
2023-02-24T03:18:53.569Z,6.64
2023-02-24T03:19:53.566Z,6.62
2023-02-24T03:20:53.571Z,6.56
2023-02-24T03:21:53.579Z,6.52
2023-02-24T03:22:53.549Z,6.54
2023-02-24T03:23:53.542Z,6.62
2023-02-24T03:24:53.556Z,6.59
2023-02-24T03:25:53.525Z,6.56
2023-02-24T03:26:53.548Z,6.54
2023-02-24T03:27:53.514Z,6.52
2023-02-24T03:28:53.501Z,6.54
2023-02-24T03:29:53.497Z,6.48
2023-02-24T03:30:53.538Z,6.51
2023-02-24T03:31:53.623Z,6.38
2023-02-24T03:32:53.621Z,6.42
2023-02-24T03:33:53.472Z,6.46
2023-02-24T03:34:53.461Z,6.38
2023-02-24T03:35:53.455Z,6.42
2023-02-24T03:36:53.474Z,6.49
2023-02-24T03:37:53.440Z,6.49
2023-02-24T03:38:53.421Z,6.42
2023-02-24T03:39:54.438Z,6.46
2023-02-24T03:40:53.471Z,6.45
2023-02-24T03:41:53.418Z,6.33
2023-02-24T03:42:53.431Z,6.42
2023-02-24T03:43:53.396Z,6.38
2023-02-24T03:44:53.395Z,6.33
2023-02-24T03:45:53.404Z,6.28
2023-02-24T03:46:53.373Z,6.30
2023-02-24T03:47:53.393Z,6.38
2023-02-24T03:48:53.367Z,6.36
2023-02-24T03:49:53.358Z,6.36
2023-02-24T03:50:53.341Z,6.31
2023-02-24T03:51:53.332Z,6.36
2023-02-24T03:52:53.353Z,6.38
2023-02-24T03:53:53.329Z,6.39
2023-02-24T03:54:53.316Z,6.42
2023-02-24T03:55:53.303Z,6.36
2023-02-24T03:56:53.294Z,6.39
2023-02-24T03:57:53.316Z,6.39
2023-02-24T03:58:53.271Z,6.35
2023-02-24T03:59:53.269Z,6.27
2023-02-24T04:00:53.269Z,6.39
2023-02-24T04:01:53.256Z,6.38
2023-02-24T04:02:53.279Z,6.22
2023-02-24T04:03:53.261Z,6.42
2023-02-24T04:04:53.262Z,6.26
2023-02-24T04:05:53.229Z,6.36
2023-02-24T04:06:55.782Z,6.26
2023-02-24T04:07:54.247Z,6.38
2023-02-24T04:08:53.195Z,6.26
2023-02-24T04:09:53.198Z,6.30
2023-02-24T04:10:53.188Z,6.24
2023-02-24T04:11:53.176Z,6.39
2023-02-24T04:12:53.321Z,6.28
2023-02-24T04:13:53.172Z,6.27
2023-02-24T04:14:53.194Z,6.24
2023-02-24T04:15:53.186Z,6.24
2023-02-24T04:16:53.146Z,6.28
2023-02-24T04:17:53.183Z,6.22
2023-02-24T04:18:53.120Z,6.22
2023-02-24T04:19:53.121Z,6.30
2023-02-24T04:20:53.214Z,6.17
2023-02-24T04:21:53.100Z,6.28
2023-02-24T04:22:53.114Z,6.19
2023-02-24T04:23:53.079Z,6.20
2023-02-24T04:24:53.068Z,6.17
2023-02-24T04:25:53.070Z,6.16
2023-02-24T04:26:53.062Z,6.14
2023-02-24T04:27:53.086Z,6.16
2023-02-24T04:28:53.058Z,6.24
2023-02-24T04:29:53.066Z,6.14
2023-02-24T04:30:53.164Z,6.09
2023-02-24T04:31:53.242Z,6.17
2023-02-24T04:32:53.124Z,6.08
2023-02-24T04:33:53.032Z,6.12
2023-02-24T04:34:53.004Z,6.14
2023-02-24T04:35:52.996Z,6.12
2023-02-24T04:36:52.991Z,5.99
2023-02-24T04:37:52.989Z,6.07
2023-02-24T04:38:53.000Z,6.01
2023-02-24T04:39:52.974Z,5.93
2023-02-24T04:40:52.965Z,5.97
2023-02-24T04:41:52.955Z,5.94
2023-02-24T04:42:52.957Z,5.97
2023-02-24T04:43:52.985Z,5.94
2023-02-24T04:44:52.964Z,5.99
2023-02-24T04:45:52.943Z,6.01
2023-02-24T04:46:52.908Z,5.90
2023-02-24T04:47:52.904Z,5.98
2023-02-24T04:48:52.941Z,5.94
2023-02-24T04:49:52.895Z,5.94
2023-02-24T04:50:52.883Z,5.84
2023-02-24T04:51:52.903Z,5.76
2023-02-24T04:52:52.872Z,5.79
2023-02-24T04:53:52.880Z,5.83
2023-02-24T04:54:53.862Z,5.83
2023-02-24T04:55:52.853Z,5.75
2023-02-24T04:56:52.849Z,5.75
2023-02-24T04:57:52.833Z,5.69
2023-02-24T04:58:52.858Z,5.75
2023-02-24T04:59:52.819Z,5.79
2023-02-24T05:00:53.127Z,5.64
2023-02-24T05:01:52.811Z,5.64
2023-02-24T05:02:53.115Z,5.80
2023-02-24T05:03:52.849Z,5.69
2023-02-24T05:04:52.829Z,5.69
2023-02-24T05:05:52.783Z,5.72
2023-02-24T05:06:52.776Z,5.69
2023-02-24T05:07:52.781Z,5.72
2023-02-24T05:08:52.789Z,5.72
2023-02-24T05:09:52.759Z,5.71
2023-02-24T05:10:52.758Z,5.69
2023-02-24T05:11:52.748Z,5.76
2023-02-24T05:12:52.730Z,5.71
2023-02-24T05:13:52.754Z,5.75
2023-02-24T05:14:52.714Z,5.75
2023-02-24T05:15:52.757Z,5.75
2023-02-24T05:16:52.697Z,5.68
2023-02-24T05:17:52.694Z,5.71
2023-02-24T05:18:52.725Z,5.73
2023-02-24T05:19:52.685Z,5.73
2023-02-24T05:20:52.667Z,5.72
2023-02-24T05:21:52.667Z,5.75
2023-02-24T05:22:52.672Z,5.75
2023-02-24T05:23:52.696Z,5.79
2023-02-24T05:24:52.638Z,5.73
2023-02-24T05:25:52.635Z,5.82
2023-02-24T05:26:52.625Z,5.89
2023-02-24T05:27:52.617Z,5.75
2023-02-24T05:28:52.649Z,5.80
2023-02-24T05:29:54.713Z,5.72
2023-02-24T05:30:52.649Z,5.64
2023-02-24T05:31:52.654Z,5.62
2023-02-24T05:32:52.582Z,5.68
2023-02-24T05:33:52.604Z,5.53
2023-02-24T05:34:52.569Z,5.64
2023-02-24T05:35:52.563Z,5.59
2023-02-24T05:36:52.556Z,5.68
2023-02-24T05:37:52.551Z,5.61
2023-02-24T05:38:54.535Z,5.59
2023-02-24T05:39:52.532Z,5.61
2023-02-24T05:40:52.518Z,5.65
2023-02-24T05:41:52.514Z,5.59
2023-02-24T05:42:52.520Z,5.57
2023-02-24T05:43:52.524Z,5.57
2023-02-24T05:44:52.490Z,5.54
2023-02-24T05:45:52.482Z,5.59
2023-02-24T05:46:52.528Z,5.64
2023-02-24T05:47:52.477Z,5.66
2023-02-24T05:48:52.487Z,5.71
2023-02-24T05:49:52.481Z,5.57
2023-02-24T05:50:52.444Z,5.50
2023-02-24T05:51:52.444Z,5.54
2023-02-24T05:52:52.434Z,5.43
2023-02-24T05:53:52.451Z,5.59
2023-02-24T05:54:52.411Z,5.39
2023-02-24T05:55:52.417Z,5.43
2023-02-24T05:56:52.417Z,5.51
2023-02-24T05:57:52.392Z,5.57
2023-02-24T05:58:54.680Z,5.48
2023-02-24T05:59:52.381Z,5.64
2023-02-24T06:00:52.383Z,5.57
2023-02-24T06:01:52.441Z,5.64
2023-02-24T06:02:52.390Z,5.65
2023-02-24T06:03:52.376Z,5.62
2023-02-24T06:04:52.336Z,5.64
2023-02-24T06:05:52.329Z,5.72
2023-02-24T06:06:52.329Z,5.69
2023-02-24T06:07:52.318Z,5.73
2023-02-24T06:08:52.336Z,5.76
2023-02-24T06:09:52.300Z,5.62
2023-02-24T06:10:52.294Z,5.68
2023-02-24T06:11:52.323Z,5.61
2023-02-24T06:12:54.497Z,5.57
2023-02-24T06:13:52.302Z,5.68
2023-02-24T06:14:52.270Z,5.53
2023-02-24T06:15:52.259Z,5.36
2023-02-24T06:16:52.251Z,5.46
2023-02-24T06:17:52.244Z,5.35
2023-02-24T06:18:52.267Z,5.36
2023-02-24T06:19:52.223Z,5.23
2023-02-24T06:20:52.217Z,5.25
2023-02-24T06:21:52.224Z,5.29
2023-02-24T06:22:52.203Z,5.28
2023-02-24T06:23:52.195Z,5.28
2023-02-24T06:24:52.215Z,5.23
2023-02-24T06:25:52.187Z,5.18
2023-02-24T06:26:52.172Z,5.18
2023-02-24T06:27:52.166Z,5.29
2023-02-24T06:28:52.168Z,5.26
2023-02-24T06:29:52.174Z,5.23
2023-02-24T06:30:52.172Z,5.12
2023-02-24T06:31:52.204Z,5.18
2023-02-24T06:32:52.161Z,5.20
2023-02-24T06:33:52.126Z,5.21
2023-02-24T06:34:52.137Z,5.29
2023-02-24T06:35:52.100Z,5.20
2023-02-24T06:36:52.103Z,5.18
2023-02-24T06:37:52.095Z,5.35
2023-02-24T06:38:52.081Z,5.15
2023-02-24T06:39:52.134Z,5.23
2023-02-24T06:40:52.064Z,5.25
2023-02-24T06:41:52.067Z,5.20
2023-02-24T06:42:52.056Z,5.20
2023-02-24T06:43:52.052Z,5.23
2023-02-24T06:44:52.066Z,5.14
2023-02-24T06:45:52.044Z,5.18
2023-02-24T06:46:52.026Z,5.20
2023-02-24T06:47:52.021Z,5.23
2023-02-24T06:48:52.014Z,5.28
2023-02-24T06:49:52.041Z,5.23
2023-02-24T06:50:52.004Z,5.32
2023-02-24T06:51:52.048Z,5.36
2023-02-24T06:52:51.977Z,5.32
2023-02-24T06:53:51.973Z,5.33
2023-02-24T06:54:52.018Z,5.39
2023-02-24T06:55:51.976Z,5.36
2023-02-24T06:56:51.949Z,5.30
2023-02-24T06:57:51.941Z,5.43
2023-02-24T06:58:51.930Z,5.29
2023-02-24T06:59:51.959Z,5.32
2023-02-24T07:00:51.963Z,5.32
2023-02-24T07:01:51.914Z,5.28
2023-02-24T07:02:51.917Z,5.18
2023-02-24T07:03:51.945Z,5.23
2023-02-24T07:04:51.919Z,5.14
2023-02-24T07:05:51.882Z,5.25
2023-02-24T07:06:51.875Z,5.25
2023-02-24T07:07:51.891Z,5.25
2023-02-24T07:08:51.862Z,5.32
2023-02-24T07:09:51.882Z,5.25
2023-02-24T07:10:51.867Z,5.28
2023-02-24T07:11:51.844Z,5.28
2023-02-24T07:12:51.825Z,5.32
2023-02-24T07:13:51.818Z,5.28
2023-02-24T07:14:51.847Z,5.33
2023-02-24T07:15:51.808Z,5.25
2023-02-24T07:16:51.861Z,5.38
2023-02-24T07:17:51.789Z,5.28
2023-02-24T07:18:51.785Z,5.20
2023-02-24T07:19:51.804Z,5.23
2023-02-24T07:20:51.796Z,5.30
2023-02-24T07:21:51.763Z,5.33
2023-02-24T07:22:51.755Z,5.32
2023-02-24T07:23:51.754Z,5.32
2023-02-24T07:24:51.765Z,5.29
2023-02-24T07:25:51.743Z,5.35
2023-02-24T07:26:51.774Z,5.35
2023-02-24T07:27:51.717Z,5.35
2023-02-24T07:28:51.715Z,5.36
2023-02-24T07:29:53.213Z,5.46
2023-02-24T07:30:52.782Z,5.38
2023-02-24T07:31:51.802Z,5.47
2023-02-24T07:32:51.718Z,5.53
2023-02-24T07:33:51.669Z,5.48
2023-02-24T07:34:51.701Z,5.64
2023-02-24T07:35:51.665Z,5.62
2023-02-24T07:36:51.652Z,5.62
2023-02-24T07:37:51.643Z,5.62
2023-02-24T07:38:51.642Z,5.61
2023-02-24T07:39:51.661Z,5.71
2023-02-24T07:40:51.622Z,5.66
2023-02-24T07:41:51.611Z,5.73
2023-02-24T07:42:51.607Z,5.66
2023-02-24T07:43:51.602Z,5.73
2023-02-24T07:44:52.012Z,5.80
2023-02-24T07:45:51.620Z,5.79
2023-02-24T07:46:51.580Z,5.69
2023-02-24T07:47:51.568Z,5.76
2023-02-24T07:48:51.552Z,5.89
2023-02-24T07:49:52.580Z,5.72
2023-02-24T07:50:51.537Z,5.84
2023-02-24T07:51:51.530Z,5.83
2023-02-24T07:52:51.527Z,5.79
2023-02-24T07:53:52.344Z,5.87
2023-02-24T07:54:52.532Z,5.83
2023-02-24T07:55:51.486Z,5.90
2023-02-24T07:56:52.489Z,5.97
2023-02-24T07:57:51.487Z,5.97
2023-02-24T07:58:51.477Z,6.05
2023-02-24T07:59:51.508Z,5.97
2023-02-24T08:00:51.458Z,6.01
2023-02-24T08:01:51.466Z,5.94
2023-02-24T08:02:51.510Z,5.94
2023-02-24T08:03:51.439Z,6.04
2023-02-24T08:04:51.555Z,5.98
2023-02-24T08:05:51.453Z,6.07
2023-02-24T08:06:51.424Z,6.09
2023-02-24T08:07:51.411Z,6.11
2023-02-24T08:08:51.401Z,6.14
2023-02-24T08:09:51.416Z,6.19
2023-02-24T08:10:51.381Z,6.17
2023-02-24T08:11:51.377Z,6.17
2023-02-24T08:12:51.370Z,6.17
2023-02-24T08:13:51.368Z,6.19
2023-02-24T08:14:51.623Z,6.17
2023-02-24T08:15:51.510Z,6.14
2023-02-24T08:16:51.349Z,6.16
2023-02-24T08:17:51.340Z,6.22
2023-02-24T08:18:51.327Z,6.22
2023-02-24T08:19:51.342Z,6.36
2023-02-24T08:20:51.314Z,6.08
2023-02-24T08:21:51.299Z,6.22
2023-02-24T08:22:51.285Z,6.17
2023-02-24T08:23:51.289Z,6.27
2023-02-24T08:24:51.304Z,6.30
2023-02-24T08:25:51.277Z,6.42
2023-02-24T08:26:51.259Z,6.45
2023-02-24T08:28:06.030Z,6.62
2023-02-24T08:28:53.247Z,6.67
2023-02-24T08:29:51.269Z,6.66
2023-02-24T08:30:51.333Z,6.69
2023-02-24T08:31:51.333Z,6.85
2023-02-24T08:32:51.297Z,6.89
2023-02-24T08:33:51.279Z,6.82
2023-02-24T08:34:51.247Z,6.99
2023-02-24T08:35:51.215Z,6.88
2023-02-24T08:36:51.202Z,6.89
2023-02-24T08:37:51.328Z,6.88
2023-02-24T08:38:51.181Z,7.10
2023-02-24T08:39:51.172Z,7.15
2023-02-24T08:40:51.212Z,7.23
2023-02-24T08:41:51.163Z,7.25
2023-02-24T08:42:51.152Z,7.35
2023-02-24T08:43:51.169Z,7.47
2023-02-24T08:44:51.138Z,7.56
2023-02-24T08:45:51.175Z,7.76
2023-02-24T08:46:51.234Z,7.77
2023-02-24T08:47:51.117Z,7.70
2023-02-24T08:48:51.106Z,7.69
2023-02-24T08:49:51.110Z,7.21
2023-02-24T08:50:51.163Z,7.29
2023-02-24T08:51:51.091Z,7.31
2023-02-24T08:52:51.080Z,7.43
2023-02-24T08:53:51.069Z,7.42
2023-02-24T08:54:51.056Z,7.61
2023-02-24T08:55:51.089Z,7.73
2023-02-24T08:56:51.043Z,7.79
2023-02-24T08:57:53.423Z,7.83
2023-02-24T08:58:51.028Z,7.83
2023-02-24T08:59:51.024Z,7.82
2023-02-24T09:00:51.099Z,7.87
2023-02-24T09:02:03.637Z,7.80
2023-02-24T09:02:53.002Z,7.79
2023-02-24T09:03:50.996Z,7.72
2023-02-24T09:04:51.021Z,7.69
2023-02-24T09:05:51.006Z,7.75
2023-02-24T09:06:53.844Z,7.82
2023-02-24T09:07:50.968Z,7.85
2023-02-24T09:08:50.949Z,7.82
2023-02-24T09:09:51.964Z,7.94
2023-02-24T09:10:50.956Z,7.97
2023-02-24T09:11:51.938Z,8.13
2023-02-24T09:12:50.928Z,8.23
2023-02-24T09:13:50.925Z,8.16
2023-02-24T09:14:50.917Z,8.30
2023-02-24T09:15:50.945Z,8.19
2023-02-24T09:16:50.900Z,8.24
2023-02-24T09:17:50.899Z,8.31
2023-02-24T09:18:50.881Z,8.36
2023-02-24T09:19:50.885Z,8.55
2023-02-24T09:20:50.903Z,8.60
2023-02-24T09:21:50.859Z,8.58
2023-02-24T09:22:50.854Z,8.71
2023-02-24T09:23:50.842Z,8.67
2023-02-24T09:24:50.846Z,8.45
2023-02-24T09:25:50.861Z,8.42
2023-02-24T09:26:50.844Z,8.30
2023-02-24T09:27:50.819Z,8.26
2023-02-24T09:28:50.865Z,8.01
2023-02-24T09:29:50.794Z,7.98
2023-02-24T09:30:51.005Z,7.60
2023-02-24T09:31:51.907Z,7.67
2023-02-24T09:32:50.902Z,7.56
2023-02-24T09:33:50.780Z,7.61
2023-02-24T09:34:50.762Z,7.45
2023-02-24T09:35:50.756Z,7.50
2023-02-24T09:36:50.763Z,7.45
2023-02-24T09:37:50.739Z,7.43
2023-02-24T09:38:50.733Z,7.45
2023-02-24T09:39:50.723Z,7.60
2023-02-24T09:40:50.712Z,7.69
2023-02-24T09:41:50.742Z,7.73
2023-02-24T09:42:50.715Z,7.85
2023-02-24T09:43:50.702Z,7.94
2023-02-24T09:44:50.687Z,7.95
2023-02-24T09:45:50.832Z,8.08
2023-02-24T09:46:50.830Z,8.06
2023-02-24T09:47:50.662Z,7.77
2023-02-24T09:48:50.650Z,7.77
2023-02-24T09:49:50.674Z,7.83
2023-02-24T09:51:02.530Z,7.83
2023-02-24T09:51:52.670Z,7.91
2023-02-24T09:52:52.179Z,8.08
2023-02-24T09:53:50.610Z,8.12
2023-02-24T09:54:50.608Z,8.06
2023-02-24T09:55:50.609Z,8.12
2023-02-24T09:56:50.637Z,8.08
2023-02-24T09:57:50.579Z,8.18
2023-02-24T09:58:51.591Z,8.18
2023-02-24T09:59:50.575Z,8.18
2023-02-24T10:00:50.594Z,8.16
2023-02-24T10:01:50.583Z,8.18
2023-02-24T10:02:50.550Z,7.98
2023-02-24T10:03:50.542Z,7.93
2023-02-24T10:04:50.529Z,7.94
2023-02-24T10:05:50.529Z,7.98
2023-02-24T10:06:50.549Z,8.12
2023-02-24T10:07:50.505Z,8.18
2023-02-24T10:08:50.521Z,8.12
2023-02-24T10:09:50.492Z,8.08
2023-02-24T10:10:50.485Z,8.15
2023-02-24T10:11:51.502Z,7.95
2023-02-24T10:12:50.466Z,8.06
2023-02-24T10:13:50.465Z,8.03
2023-02-24T10:14:51.608Z,8.09
2023-02-24T10:15:57.024Z,8.00
2023-02-24T10:16:52.523Z,8.03
2023-02-24T10:17:50.441Z,8.10
2023-02-24T10:18:50.439Z,8.01
2023-02-24T10:19:50.428Z,7.97
2023-02-24T10:20:50.494Z,8.13
2023-02-24T10:21:50.432Z,8.01
2023-02-24T10:22:50.577Z,8.23
2023-02-24T10:23:54.915Z,8.19
2023-02-24T10:24:51.388Z,8.24
2023-02-24T10:25:50.371Z,8.33
2023-02-24T10:26:59.970Z,8.37
2023-02-24T10:27:52.370Z,8.38
2023-02-24T10:28:50.343Z,8.49
2023-02-24T10:29:51.342Z,8.56
2023-02-24T10:30:50.398Z,8.63
2023-02-24T10:31:50.509Z,8.27
2023-02-24T10:32:50.402Z,8.09
2023-02-24T10:33:50.360Z,8.00
2023-02-24T10:34:50.302Z,7.88
2023-02-24T10:35:50.295Z,7.88
2023-02-24T10:36:50.336Z,7.93
2023-02-24T10:37:50.283Z,8.05
2023-02-24T10:38:50.275Z,8.10
2023-02-24T10:39:51.901Z,8.20
2023-02-24T10:40:51.259Z,8.16
2023-02-24T10:41:50.310Z,8.13
2023-02-24T10:42:50.250Z,8.26
2023-02-24T10:43:50.259Z,8.34
2023-02-24T10:45:01.178Z,8.37
2023-02-24T10:45:52.258Z,8.24
2023-02-24T10:46:50.289Z,8.16
2023-02-24T10:47:50.236Z,7.98
2023-02-24T10:48:50.195Z,7.87
2023-02-24T10:49:50.220Z,7.82
2023-02-24T10:50:55.926Z,7.79
2023-02-24T10:51:52.186Z,7.98
2023-02-24T10:52:50.205Z,7.87
2023-02-24T10:53:50.229Z,8.06
2023-02-24T10:54:50.177Z,7.95
2023-02-24T10:55:50.152Z,7.94
2023-02-24T10:56:50.142Z,8.06
2023-02-24T10:57:58.609Z,7.94
2023-02-24T10:58:52.121Z,7.95
2023-02-24T10:59:50.205Z,7.98
2023-02-24T11:00:50.132Z,7.98
2023-02-24T11:01:50.141Z,7.95
2023-02-24T11:02:50.150Z,7.88
2023-02-24T11:03:50.083Z,7.98
2023-02-24T11:04:50.073Z,7.93
2023-02-24T11:05:50.067Z,7.91
2023-02-24T11:06:50.064Z,8.06
2023-02-24T11:07:50.073Z,8.13
2023-02-24T11:08:51.071Z,8.05
2023-02-24T11:09:50.043Z,8.00
2023-02-24T11:10:50.023Z,7.82
2023-02-24T11:11:50.028Z,7.72
2023-02-24T11:12:53.571Z,7.70
2023-02-24T11:13:50.995Z,7.70
2023-02-24T11:14:50.002Z,7.70
2023-02-24T11:15:50.016Z,7.61
2023-02-24T11:16:49.986Z,7.73
2023-02-24T11:17:50.033Z,7.80
2023-02-24T11:18:50.013Z,7.88
2023-02-24T11:19:49.953Z,7.83
2023-02-24T11:20:50.187Z,7.66
2023-02-24T11:21:50.939Z,7.75
2023-02-24T11:22:49.958Z,7.69
2023-02-24T11:23:49.926Z,7.72
2023-02-24T11:24:49.920Z,7.80
2023-02-24T11:25:49.927Z,7.75
2023-02-24T11:26:49.903Z,7.61
2023-02-24T11:27:49.944Z,7.61
2023-02-24T11:28:49.894Z,7.36
2023-02-24T11:29:49.887Z,7.35
2023-02-24T11:30:49.952Z,7.35
2023-02-24T11:31:49.993Z,7.38
2023-02-24T11:32:49.988Z,7.32
2023-02-24T11:33:49.847Z,7.36
2023-02-24T11:34:49.844Z,7.36
2023-02-24T11:35:49.829Z,7.51
2023-02-24T11:36:49.816Z,7.66
2023-02-24T11:37:49.812Z,7.61
2023-02-24T11:38:49.831Z,7.75
2023-02-24T11:39:49.805Z,7.67
2023-02-24T11:40:49.784Z,7.60
2023-02-24T11:41:49.784Z,7.36
2023-02-24T11:42:49.777Z,7.33
2023-02-24T11:43:49.796Z,7.38
2023-02-24T11:44:49.765Z,7.31
2023-02-24T11:45:49.753Z,7.32
2023-02-24T11:46:49.740Z,7.11
2023-02-24T11:47:49.751Z,7.18
2023-02-24T11:48:49.753Z,7.05
2023-02-24T11:49:49.730Z,7.05
2023-02-24T11:50:49.716Z,6.99
2023-02-24T11:51:49.706Z,7.05
2023-02-24T11:52:49.694Z,6.95
2023-02-24T11:53:49.731Z,7.02
2023-02-24T11:54:49.679Z,6.95
2023-02-24T11:55:49.689Z,6.95
2023-02-24T11:56:50.670Z,6.95
2023-02-24T11:57:49.690Z,6.95
2023-02-24T11:58:49.677Z,6.93
2023-02-24T11:59:49.656Z,7.11
2023-02-24T12:00:49.630Z,7.28
2023-02-24T12:01:49.641Z,7.24
2023-02-24T12:02:49.656Z,7.24
2023-02-24T12:03:49.656Z,7.24
2023-02-24T12:04:49.621Z,7.15
2023-02-24T12:05:49.628Z,7.18
2023-02-24T12:06:49.591Z,7.10
2023-02-24T12:07:49.591Z,7.21
2023-02-24T12:08:49.600Z,7.17
2023-02-24T12:09:49.572Z,7.18
2023-02-24T12:10:49.570Z,7.25
2023-02-24T12:11:49.548Z,7.29
2023-02-24T12:12:49.554Z,7.02
2023-02-24T12:13:49.572Z,7.14
2023-02-24T12:14:49.537Z,7.14
2023-02-24T12:15:49.562Z,7.20
2023-02-24T12:16:49.531Z,7.18
2023-02-24T12:17:49.510Z,7.13
2023-02-24T12:18:49.537Z,7.23
2023-02-24T12:19:49.489Z,7.31
2023-02-24T12:20:49.489Z,7.39
2023-02-24T12:21:49.501Z,7.33
2023-02-24T12:22:49.473Z,7.32
2023-02-24T12:23:49.494Z,7.50
2023-02-24T12:24:49.508Z,7.29
2023-02-24T12:25:49.453Z,7.47
2023-02-24T12:26:49.431Z,7.35
2023-02-24T12:27:49.423Z,7.32
2023-02-24T12:28:49.417Z,7.33
2023-02-24T12:29:49.476Z,7.25
2023-02-24T12:30:49.474Z,7.24
2023-02-24T12:31:49.499Z,7.13
2023-02-24T12:32:50.539Z,6.99
2023-02-24T12:33:49.535Z,7.00
2023-02-24T12:34:49.393Z,6.87
2023-02-24T12:35:49.358Z,6.88
2023-02-24T12:36:49.359Z,6.81
2023-02-24T12:37:49.344Z,6.67
2023-02-24T12:38:49.340Z,6.70
2023-02-24T12:39:50.365Z,6.54
2023-02-24T12:40:49.335Z,6.52
2023-02-24T12:41:49.320Z,6.48
2023-02-24T12:42:49.317Z,6.56
2023-02-24T12:43:49.301Z,6.59
2023-02-24T12:44:49.314Z,6.63
2023-02-24T12:45:49.355Z,6.60
2023-02-24T12:46:49.277Z,6.59
2023-02-24T12:47:49.278Z,6.64
2023-02-24T12:48:49.254Z,6.67
2023-02-24T12:49:49.276Z,6.69
2023-02-24T12:50:49.247Z,6.64
2023-02-24T12:51:49.303Z,6.59
2023-02-24T12:52:49.305Z,6.20
2023-02-24T12:53:49.227Z,6.16
2023-02-24T12:54:50.263Z,6.17
2023-02-24T12:55:49.209Z,6.04
2023-02-24T12:56:49.196Z,6.12
2023-02-24T12:57:49.683Z,6.08
2023-02-24T12:58:49.228Z,6.09
2023-02-24T12:59:49.198Z,6.11
2023-02-24T13:00:49.205Z,6.11
2023-02-24T13:01:50.156Z,6.07
2023-02-24T13:02:49.157Z,6.01
2023-02-24T13:03:49.147Z,5.90
2023-02-24T13:04:49.185Z,5.89
2023-02-24T13:05:49.130Z,5.73
2023-02-24T13:06:49.121Z,5.59
2023-02-24T13:07:49.119Z,5.56
2023-02-24T13:08:49.106Z,5.53
2023-02-24T13:09:49.128Z,5.59
2023-02-24T13:10:49.093Z,5.32
2023-02-24T13:11:49.091Z,5.26
2023-02-24T13:12:49.073Z,5.28
2023-02-24T13:13:49.069Z,5.29
2023-02-24T13:14:49.088Z,5.30
2023-02-24T13:15:49.054Z,5.33
2023-02-24T13:16:49.123Z,5.39
2023-02-24T13:17:49.041Z,5.35
2023-02-24T13:18:49.038Z,5.12